Date,TemperatureHighF,TemperatureAvgF,TemperatureLowF,DewpointHighF,DewpointAvgF,DewpointLowF,HumidityHigh,HumidityAvg,HumidityLow,PressureMaxIn,PressureMinIn,WindSpeedMaxMPH,WindSpeedAvgMPH,GustSpeedMaxMPH,PrecipitationSumIn
2013-3-6,40.0,37.2,34.1,36.0,34.2,32.8,100,89,79,29.78,29.51,15,5,15,0.00
2013-3-7,48.8,39.9,31.6,34.2,31.9,28.2,89,74,57,29.93,29.78,6,1,7,0.00
2013-3-8,50.5,40.2,34.0,34.5,30.3,27.5,89,69,52,30.06,29.91,12,3,12,0.00
2013-3-9,61.5,44.4,29.7,32.4,27.7,24.0,81,56,26,30.13,30.01,5,1,7,0.00
2013-3-10,63.9,47.6,29.4,36.0,29.6,25.4,90,55,28,30.06,29.93,14,4,14,0.00
2013-3-11,58.6,51.0,42.9,51.8,42.0,27.0,92,73,43,29.95,29.62,13,5,13,0.00
2013-3-12,57.0,50.6,41.2,54.8,45.5,32.2,100,84,66,29.73,29.51,15,4,15,0.00
2013-3-13,47.4,40.3,32.5,33.7,27.2,20.8,80,60,44,29.73,29.47,10,3,10,0.00
2013-3-14,44.8,36.7,31.1,23.2,20.3,18.1,67,52,37,29.69,29.61,12,4,12,0.00
2013-3-15,54.6,42.5,28.8,37.8,28.8,20.5,76,59,44,29.66,29.35,10,3,10,0.00
2013-3-16,47.6,39.0,34.2,41.0,36.4,34.2,100,91,65,29.51,29.26,11,3,11,0.00
2013-3-17,40.1,36.3,33.4,37.1,30.8,25.9,100,82,61,29.82,29.50,9,2,9,0.00
2013-3-18,34.9,33.3,31.8,33.0,28.4,22.3,100,83,63,29.86,29.47,10,2,10,0.00
2013-3-19,55.2,39.5,32.1,45.4,34.6,28.8,100,87,38,29.47,29.30,9,2,9,0.00
2013-3-22,43.2,36.4,30.3,24.0,22.5,21.7,71,58,45,29.61,29.51,12,2,12,0.00
2013-3-23,54.8,38.4,26.0,29.6,25.0,19.9,83,61,37,29.63,29.52,4,1,7,0.00
2013-3-24,42.9,35.0,26.7,33.7,26.2,20.9,98,72,51,29.60,29.24,8,1,8,0.00
2013-3-25,42.6,35.5,32.1,41.1,35.0,32.1,100,98,86,29.30,29.13,2,0,7,0.00
2013-3-26,52.3,40.6,30.2,40.1,34.0,30.2,100,80,50,29.60,29.30,5,1,7,0.00
2013-3-27,50.6,42.3,36.2,37.1,32.8,30.3,84,70,51,29.72,29.60,8,2,8,0.00
2013-3-28,50.8,42.8,36.9,35.6,33.8,31.6,82,71,53,29.83,29.67,7,2,7,0.00
2013-3-29,57.9,45.7,38.3,39.3,34.2,31.1,84,66,43,29.85,29.74,5,1,7,0.00
2013-3-30,61.6,45.6,30.0,37.9,30.2,24.9,95,60,27,29.83,29.69,5,1,7,0.00
2013-3-31,47.3,43.2,36.1,47.3,39.4,27.7,100,87,60,29.70,29.35,7,1,7,0.00